PWSweather.com
Personal Weather Stations
Station Observations
IHTIMAN1
Neighbourhood 1, IhtimanBG 2050

Neighbourhood 1IhtimanBG 2050

Lat: 42.436852, Lon: 23.817921

Elevation: 2066

Station Type: Oregon Scientific WMR968

http://ihtiman-meteo.com

High Low Average
Temperature 84.0°F28.9°C 62.6°F17.0°C 70.2°F21.2°C
Dew Point 69.8°F21.0°C 58.7°F14.8°C 64.1°F17.8°C
Winds 9.2 mph 14.8 kmh Calm Calm 1.0 mph S1.6 kmh S
Wind Gusts 12.7 mph20.4 kmh -- 2.0 mph3.2 kmh
Humidity 98% 47% 83%
Pressure 30.24 in1024.0 mb 30.18 in1022.0 mb -
Precipitation 0.00 in0.0 mm - -
Hour Temp Dew Point Humidity Winds Wind Gusts Pressure Precip Precip Rate Daily Precip Total
12:00 AM 64.2°F17.9°C 63.4°F17.4°C 97% Calm Calm -- 30.21 in1023.0 mb - 0.00 in0.0 mm 0.00 in0.0 mm
12:10 AM 64.2°F17.9°C 63.4°F17.4°C 97% Calm Calm -- 30.21 in1023.0 mb - 0.00 in0.0 mm 0.00 in0.0 mm
12:20 AM 64.2°F17.9°C 63.6°F17.6°C 98% Calm Calm -- 30.21 in1023.0 mb - 0.00 in0.0 mm 0.00 in0.0 mm
12:30 AM 64.0°F17.8°C 63.5°F17.5°C 98% Calm Calm -- 30.21 in1023.0 mb - 0.00 in0.0 mm 0.00 in0.0 mm
12:40 AM 63.8°F17.7°C 63.2°F17.3°C 98% Calm Calm -- 30.21 in1023.0 mb - 0.00 in0.0 mm 0.00 in0.0 mm
12:50 AM 63.5°F17.5°C 62.9°F17.2°C 98% Calm Calm -- 30.21 in1023.0 mb - 0.00 in0.0 mm 0.00 in0.0 mm
01:00 AM 63.5°F17.5°C 62.9°F17.2°C 98% Calm Calm -- 30.21 in1023.0 mb - 0.00 in0.0 mm 0.00 in0.0 mm
01:10 AM 63.5°F17.5°C 62.9°F17.2°C 98% Calm Calm -- 30.21 in1023.0 mb - 0.00 in0.0 mm 0.00 in0.0 mm
01:20 AM 63.3°F17.4°C 62.7°F17.1°C 98% Calm Calm -- 30.21 in1023.0 mb - 0.00 in0.0 mm 0.00 in0.0 mm
01:30 AM 63.1°F17.3°C 62.6°F17.0°C 98% Calm Calm -- 30.21 in1023.0 mb - 0.00 in0.0 mm 0.00 in0.0 mm
01:40 AM 63.1°F17.3°C 62.6°F17.0°C 98% Calm Calm -- 30.21 in1023.0 mb - 0.00 in0.0 mm 0.00 in0.0 mm
01:50 AM 63.0°F17.2°C 62.4°F16.9°C 98% Calm Calm -- 30.21 in1023.0 mb - 0.00 in0.0 mm 0.00 in0.0 mm
02:00 AM 63.0°F17.2°C 62.4°F16.9°C 98% Calm Calm -- 30.21 in1023.0 mb - 0.00 in0.0 mm 0.00 in0.0 mm
02:10 AM 62.8°F17.1°C 62.2°F16.8°C 98% Calm Calm -- 30.21 in1023.0 mb - 0.00 in0.0 mm 0.00 in0.0 mm
02:20 AM 62.6°F17.0°C 62.0°F16.7°C 98% Calm Calm -- 30.21 in1023.0 mb - 0.00 in0.0 mm 0.00 in0.0 mm
02:30 AM 62.6°F17.0°C 62.0°F16.7°C 98% Calm Calm -- 30.21 in1023.0 mb - 0.00 in0.0 mm 0.00 in0.0 mm
02:40 AM 62.6°F17.0°C 62.0°F16.7°C 98% Calm Calm -- 30.21 in1023.0 mb - 0.00 in0.0 mm 0.00 in0.0 mm
02:50 AM 62.6°F17.0°C 62.0°F16.7°C 98% Calm Calm -- 30.21 in1023.0 mb - 0.00 in0.0 mm 0.00 in0.0 mm
03:00 AM 62.8°F17.1°C 62.2°F16.8°C 98% Calm Calm -- 30.21 in1023.0 mb - 0.00 in0.0 mm 0.00 in0.0 mm
03:10 AM 62.8°F17.1°C 62.2°F16.8°C 98% Calm Calm -- 30.21 in1023.0 mb - 0.00 in0.0 mm 0.00 in0.0 mm
03:20 AM 62.8°F17.1°C 62.2°F16.8°C 98% Calm Calm -- 30.21 in1023.0 mb - 0.00 in0.0 mm 0.00 in0.0 mm
03:30 AM 62.8°F17.1°C 62.2°F16.8°C 98% Calm Calm -- 30.21 in1023.0 mb - 0.00 in0.0 mm 0.00 in0.0 mm
03:40 AM 63.0°F17.2°C 62.4°F16.9°C 98% Calm Calm -- 30.21 in1023.0 mb - 0.00 in0.0 mm 0.00 in0.0 mm
03:50 AM 63.0°F17.2°C 62.4°F16.9°C 98% Calm Calm -- 30.21 in1023.0 mb - 0.00 in0.0 mm 0.00 in0.0 mm
04:00 AM 63.0°F17.2°C 62.4°F16.9°C 98% Calm Calm -- 30.21 in1023.0 mb - 0.00 in0.0 mm 0.00 in0.0 mm
04:10 AM 63.0°F17.2°C 62.4°F16.9°C 98% Calm Calm -- 30.21 in1023.0 mb - 0.00 in0.0 mm 0.00 in0.0 mm
04:20 AM 63.1°F17.3°C 62.6°F17.0°C 98% Calm Calm -- 30.21 in1023.0 mb - 0.00 in0.0 mm 0.00 in0.0 mm
04:30 AM 63.1°F17.3°C 62.6°F17.0°C 98% Calm Calm -- 30.21 in1023.0 mb - 0.00 in0.0 mm 0.00 in0.0 mm
04:40 AM 63.1°F17.3°C 62.6°F17.0°C 98% Calm Calm -- 30.21 in1023.0 mb - 0.00 in0.0 mm 0.00 in0.0 mm
04:50 AM 63.1°F17.3°C 62.6°F17.0°C 98% Calm Calm -- 30.21 in1023.0 mb - 0.00 in0.0 mm 0.00 in0.0 mm
05:00 AM 63.1°F17.3°C 62.6°F17.0°C 98% Calm Calm -- 30.21 in1023.0 mb - 0.00 in0.0 mm 0.00 in0.0 mm
05:10 AM 63.1°F17.3°C 62.6°F17.0°C 98% Calm Calm -- 30.21 in1023.0 mb - 0.00 in0.0 mm 0.00 in0.0 mm
05:20 AM 63.2°F17.3°C 62.6°F17.0°C 98% Calm Calm -- 30.21 in1023.0 mb - 0.00 in0.0 mm 0.00 in0.0 mm
05:30 AM 63.3°F17.4°C 62.7°F17.1°C 98% Calm Calm -- 30.21 in1023.0 mb - 0.00 in0.0 mm 0.00 in0.0 mm
05:40 AM 63.5°F17.5°C 62.9°F17.2°C 98% Calm Calm -- 30.21 in1023.0 mb - 0.00 in0.0 mm 0.00 in0.0 mm
05:50 AM 63.7°F17.6°C 63.1°F17.3°C 98% Calm Calm -- 30.21 in1023.0 mb - 0.00 in0.0 mm 0.00 in0.0 mm
06:00 AM 63.9°F17.7°C 63.3°F17.4°C 98% Calm Calm -- 30.21 in1023.0 mb - 0.00 in0.0 mm 0.00 in0.0 mm
06:10 AM 64.2°F17.9°C 63.6°F17.6°C 98% Calm Calm -- 30.21 in1023.0 mb - 0.00 in0.0 mm 0.00 in0.0 mm
06:20 AM 64.8°F18.2°C 64.2°F17.9°C 98% Calm Calm -- 30.21 in1023.0 mb - 0.00 in0.0 mm 0.00 in0.0 mm
06:30 AM 65.5°F18.6°C 64.9°F18.3°C 98% Calm Calm -- 30.21 in1023.0 mb - 0.00 in0.0 mm 0.00 in0.0 mm
06:40 AM 65.7°F18.7°C 65.1°F18.4°C 98% 2.3 mph NW3.7 kmh NW 3.5 mph5.6 kmh 30.21 in1023.0 mb - 0.00 in0.0 mm 0.00 in0.0 mm
06:50 AM 65.9°F18.8°C 65.3°F18.5°C 98% 3.5 mph NW5.6 kmh NW 4.6 mph7.4 kmh 30.21 in1023.0 mb - 0.00 in0.0 mm 0.00 in0.0 mm
07:00 AM 66.0°F18.9°C 65.2°F18.4°C 97% 1.2 mph NW1.9 kmh NW 5.8 mph9.3 kmh 30.21 in1023.0 mb - 0.00 in0.0 mm 0.00 in0.0 mm
07:10 AM 66.4°F19.1°C 64.9°F18.3°C 95% 3.5 mph N5.6 kmh N 4.6 mph7.4 kmh 30.21 in1023.0 mb - 0.00 in0.0 mm 0.00 in0.0 mm
07:20 AM 66.4°F19.1°C 64.9°F18.3°C 95% Calm Calm -- 30.21 in1023.0 mb - 0.00 in0.0 mm 0.00 in0.0 mm
07:30 AM 66.4°F19.1°C 64.9°F18.3°C 95% Calm Calm -- 30.21 in1023.0 mb - 0.00 in0.0 mm 0.00 in0.0 mm
07:40 AM 66.7°F19.3°C 65.3°F18.5°C 95% Calm Calm 3.5 mph5.6 kmh 30.21 in1023.0 mb - 0.00 in0.0 mm 0.00 in0.0 mm
07:50 AM 67.0°F19.4°C 65.5°F18.6°C 95% Calm Calm -- 30.24 in1024.0 mb - 0.00 in0.0 mm 0.00 in0.0 mm
08:00 AM 67.1°F19.5°C 65.7°F18.7°C 95% Calm Calm -- 30.21 in1023.0 mb - 0.00 in0.0 mm 0.00 in0.0 mm
08:10 AM 67.1°F19.5°C 65.3°F18.5°C 94% Calm Calm -- 30.21 in1023.0 mb - 0.00 in0.0 mm 0.00 in0.0 mm
08:20 AM 67.3°F19.6°C 65.5°F18.6°C 94% Calm Calm -- 30.24 in1024.0 mb - 0.00 in0.0 mm 0.00 in0.0 mm
08:30 AM 67.4°F19.7°C 65.9°F18.8°C 95% Calm Calm -- 30.24 in1024.0 mb - 0.00 in0.0 mm 0.00 in0.0 mm
08:40 AM 67.6°F19.8°C 66.1°F18.9°C 95% Calm Calm -- 30.24 in1024.0 mb - 0.00 in0.0 mm 0.00 in0.0 mm
08:50 AM 68.1°F20.1°C 66.3°F19.1°C 94% Calm Calm -- 30.24 in1024.0 mb - 0.00 in0.0 mm 0.00 in0.0 mm
09:00 AM 68.5°F20.3°C 66.4°F19.1°C 93% Calm Calm -- 30.24 in1024.0 mb - 0.00 in0.0 mm 0.00 in0.0 mm
09:10 AM 70.0°F21.1°C 67.5°F19.7°C 92% Calm Calm -- 30.24 in1024.0 mb - 0.00 in0.0 mm 0.00 in0.0 mm
09:20 AM 70.3°F21.3°C 66.6°F19.2°C 88% Calm Calm -- 30.24 in1024.0 mb - 0.00 in0.0 mm 0.00 in0.0 mm
09:30 AM 70.7°F21.5°C 66.3°F19.1°C 86% Calm Calm -- 30.24 in1024.0 mb - 0.00 in0.0 mm 0.00 in0.0 mm
09:40 AM 71.6°F22.0°C 67.2°F19.6°C 86% Calm Calm -- 30.24 in1024.0 mb - 0.00 in0.0 mm 0.00 in0.0 mm
09:50 AM 71.6°F22.0°C 66.9°F19.4°C 85% Calm Calm -- 30.24 in1024.0 mb - 0.00 in0.0 mm 0.00 in0.0 mm
10:00 AM 72.9°F22.7°C 67.4°F19.7°C 83% Calm Calm -- 30.24 in1024.0 mb - 0.00 in0.0 mm 0.00 in0.0 mm
10:10 AM 73.6°F23.1°C 67.4°F19.7°C 81% Calm Calm 3.5 mph5.6 kmh 30.24 in1024.0 mb - 0.00 in0.0 mm 0.00 in0.0 mm
10:20 AM 77.2°F25.1°C 69.4°F20.8°C 77% 3.5 mph NNW5.6 kmh NNW 5.8 mph9.3 kmh 30.24 in1024.0 mb - 0.00 in0.0 mm 0.00 in0.0 mm
10:30 AM 75.8°F24.3°C 64.9°F18.3°C 69% 3.5 mph NNW5.6 kmh NNW 3.5 mph5.6 kmh 30.24 in1024.0 mb - 0.00 in0.0 mm 0.00 in0.0 mm
10:40 AM 75.8°F24.3°C 65.3°F18.5°C 70% 3.5 mph WNW5.6 kmh WNW 3.5 mph5.6 kmh 30.24 in1024.0 mb - 0.00 in0.0 mm 0.00 in0.0 mm
10:50 AM 75.4°F24.1°C 65.4°F18.6°C 71% 3.5 mph SW5.6 kmh SW 4.6 mph7.4 kmh 30.24 in1024.0 mb - 0.00 in0.0 mm 0.00 in0.0 mm
11:00 AM 78.2°F25.7°C 66.3°F19.1°C 67% 2.3 mph N3.7 kmh N 3.5 mph5.6 kmh 30.24 in1024.0 mb - 0.00 in0.0 mm 0.00 in0.0 mm
11:10 AM 77.3°F25.2°C 64.1°F17.8°C 64% 2.3 mph N3.7 kmh N 3.5 mph5.6 kmh 30.24 in1024.0 mb - 0.00 in0.0 mm 0.00 in0.0 mm
11:20 AM 76.9°F24.9°C 63.8°F17.7°C 64% Calm Calm 2.3 mph3.7 kmh 30.24 in1024.0 mb - 0.00 in0.0 mm 0.00 in0.0 mm
11:30 AM 76.9°F24.9°C 63.4°F17.4°C 63% 3.5 mph S5.6 kmh S 3.5 mph5.6 kmh 30.24 in1024.0 mb - 0.00 in0.0 mm 0.00 in0.0 mm
11:40 AM 76.5°F24.7°C 64.7°F18.2°C 67% 4.6 mph SSW7.4 kmh SSW 8.1 mph13.0 kmh 30.24 in1024.0 mb - 0.00 in0.0 mm 0.00 in0.0 mm
11:50 AM 75.7°F24.3°C 64.4°F18.0°C 68% 4.6 mph WSW7.4 kmh WSW 5.8 mph9.3 kmh 30.24 in1024.0 mb - 0.00 in0.0 mm 0.00 in0.0 mm
12:00 PM 74.8°F23.8°C 65.6°F18.7°C 73% 2.3 mph WSW3.7 kmh WSW 2.3 mph3.7 kmh 30.24 in1024.0 mb - 0.00 in0.0 mm 0.00 in0.0 mm
12:10 PM 76.4°F24.7°C 67.1°F19.5°C 73% 4.6 mph SW7.4 kmh SW 3.5 mph5.6 kmh 30.24 in1024.0 mb - 0.00 in0.0 mm 0.00 in0.0 mm
12:20 PM 77.1°F25.1°C 64.4°F18.0°C 65% Calm Calm -- 30.24 in1024.0 mb - 0.00 in0.0 mm 0.00 in0.0 mm
12:30 PM 76.3°F24.6°C 64.5°F18.1°C 67% 3.5 mph SW5.6 kmh SW 3.5 mph5.6 kmh 30.21 in1023.0 mb - 0.00 in0.0 mm 0.00 in0.0 mm
12:40 PM 76.3°F24.6°C 64.9°F18.3°C 68% Calm Calm -- 30.21 in1023.0 mb - 0.00 in0.0 mm 0.00 in0.0 mm
12:50 PM 76.3°F24.6°C 64.5°F18.1°C 67% Calm Calm -- 30.21 in1023.0 mb - 0.00 in0.0 mm 0.00 in0.0 mm
01:00 PM 74.2°F23.4°C 63.4°F17.4°C 69% Calm Calm -- 30.21 in1023.0 mb - 0.00 in0.0 mm 0.00 in0.0 mm
01:10 PM 75.2°F24.0°C 67.5°F19.7°C 77% Calm Calm -- 30.21 in1023.0 mb - 0.00 in0.0 mm 0.00 in0.0 mm
01:20 PM 80.5°F26.9°C 69.8°F21.0°C 70% 3.5 mph N5.6 kmh N 5.8 mph9.3 kmh 30.21 in1023.0 mb - 0.00 in0.0 mm 0.00 in0.0 mm
01:30 PM 77.8°F25.4°C 63.8°F17.7°C 62% Calm Calm 3.5 mph5.6 kmh 30.21 in1023.0 mb - 0.00 in0.0 mm 0.00 in0.0 mm
01:40 PM 78.1°F25.6°C 64.0°F17.8°C 62% Calm Calm -- 30.21 in1023.0 mb - 0.00 in0.0 mm 0.00 in0.0 mm
01:50 PM 80.9°F27.2°C 64.2°F17.9°C 57% 2.3 mph N3.7 kmh N 2.3 mph3.7 kmh 30.21 in1023.0 mb - 0.00 in0.0 mm 0.00 in0.0 mm
02:00 PM 78.3°F25.7°C 60.8°F16.0°C 55% 2.3 mph S3.7 kmh S 5.8 mph9.3 kmh 30.21 in1023.0 mb - 0.00 in0.0 mm 0.00 in0.0 mm
02:10 PM 76.4°F24.7°C 62.8°F17.1°C 63% 3.5 mph SE5.6 kmh SE 5.8 mph9.3 kmh 30.21 in1023.0 mb - 0.00 in0.0 mm 0.00 in0.0 mm
02:20 PM 75.7°F24.3°C 66.0°F18.9°C 72% 5.8 mph S9.3 kmh S 3.5 mph5.6 kmh 30.21 in1023.0 mb - 0.00 in0.0 mm 0.00 in0.0 mm
02:30 PM 74.9°F23.8°C 67.9°F19.9°C 79% 3.5 mph ENE5.6 kmh ENE 2.3 mph3.7 kmh 30.21 in1023.0 mb - 0.00 in0.0 mm 0.00 in0.0 mm
02:40 PM 79.1°F26.2°C 68.4°F20.2°C 70% 2.3 mph S3.7 kmh S 3.5 mph5.6 kmh 30.21 in1023.0 mb - 0.00 in0.0 mm 0.00 in0.0 mm
02:50 PM 81.4°F27.4°C 66.2°F19.0°C 60% 1.2 mph WSW1.9 kmh WSW 2.3 mph3.7 kmh 30.21 in1023.0 mb - 0.00 in0.0 mm 0.00 in0.0 mm
03:00 PM 78.2°F25.7°C 62.2°F16.8°C 58% Calm Calm -- 30.21 in1023.0 mb - 0.00 in0.0 mm 0.00 in0.0 mm
03:10 PM 79.5°F26.4°C 65.4°F18.6°C 62% Calm Calm -- 30.21 in1023.0 mb - 0.00 in0.0 mm 0.00 in0.0 mm
03:20 PM 83.7°F28.7°C 66.8°F19.3°C 57% Calm Calm 3.5 mph5.6 kmh 30.21 in1023.0 mb - 0.00 in0.0 mm 0.00 in0.0 mm
03:30 PM 83.5°F28.6°C 63.4°F17.4°C 51% 3.5 mph SE5.6 kmh SE 4.6 mph7.4 kmh 30.21 in1023.0 mb - 0.00 in0.0 mm 0.00 in0.0 mm
03:40 PM 79.9°F26.6°C 60.2°F15.7°C 51% Calm Calm -- 30.21 in1023.0 mb - 0.00 in0.0 mm 0.00 in0.0 mm
03:50 PM 82.3°F27.9°C 64.0°F17.8°C 54% 3.5 mph ESE5.6 kmh ESE 3.5 mph5.6 kmh 30.21 in1023.0 mb - 0.00 in0.0 mm 0.00 in0.0 mm
04:00 PM 84.0°F28.9°C 63.3°F17.4°C 50% 3.5 mph SSE5.6 kmh SSE 5.8 mph9.3 kmh 30.21 in1023.0 mb - 0.00 in0.0 mm 0.00 in0.0 mm
04:10 PM 82.2°F27.9°C 61.7°F16.5°C 50% 4.6 mph NNE7.4 kmh NNE 8.1 mph13.0 kmh 30.21 in1023.0 mb - 0.00 in0.0 mm 0.00 in0.0 mm
04:20 PM 82.1°F27.8°C 61.7°F16.5°C 50% 4.6 mph NE7.4 kmh NE 8.1 mph13.0 kmh 30.18 in1022.0 mb - 0.00 in0.0 mm 0.00 in0.0 mm
04:30 PM 82.7°F28.2°C 61.6°F16.4°C 49% 3.5 mph NNE5.6 kmh NNE 5.8 mph9.3 kmh 30.18 in1022.0 mb - 0.00 in0.0 mm 0.00 in0.0 mm
04:40 PM 83.0°F28.3°C 61.2°F16.2°C 48% 3.5 mph NNE5.6 kmh NNE 8.1 mph13.0 kmh 30.18 in1022.0 mb - 0.00 in0.0 mm 0.00 in0.0 mm
05:00 PM 82.9°F28.3°C 60.6°F15.9°C 47% 4.6 mph N7.4 kmh N 8.1 mph13.0 kmh 30.18 in1022.0 mb - 0.00 in0.0 mm 0.00 in0.0 mm
05:10 PM 83.0°F28.3°C 60.7°F15.9°C 47% 4.6 mph NE7.4 kmh NE 5.8 mph9.3 kmh 30.18 in1022.0 mb - 0.00 in0.0 mm 0.00 in0.0 mm
05:20 PM 81.7°F27.6°C 59.5°F15.3°C 47% 4.6 mph NE7.4 kmh NE 5.8 mph9.3 kmh 30.18 in1022.0 mb - 0.00 in0.0 mm 0.00 in0.0 mm
05:30 PM 75.5°F24.2°C 58.7°F14.8°C 56% 9.2 mph SE14.8 kmh SE 12.7 mph20.4 kmh 30.21 in1023.0 mb - 0.00 in0.0 mm 0.00 in0.0 mm
05:40 PM 72.4°F22.4°C 62.5°F16.9°C 71% 6.9 mph S11.1 kmh S 10.4 mph16.7 kmh 30.21 in1023.0 mb - 0.00 in0.0 mm 0.00 in0.0 mm
05:50 PM 71.6°F22.0°C 64.4°F18.0°C 78% 5.8 mph SE9.3 kmh SE 8.1 mph13.0 kmh 30.21 in1023.0 mb - 0.00 in0.0 mm 0.00 in0.0 mm
06:00 PM 73.2°F22.9°C 65.6°F18.7°C 77% 3.5 mph ESE5.6 kmh ESE 3.5 mph5.6 kmh 30.21 in1023.0 mb - 0.00 in0.0 mm 0.00 in0.0 mm
06:10 PM 73.0°F22.8°C 64.6°F18.1°C 75% 4.6 mph SE7.4 kmh SE 5.8 mph9.3 kmh 30.21 in1023.0 mb - 0.00 in0.0 mm 0.00 in0.0 mm
06:20 PM 73.1°F22.8°C 64.3°F17.9°C 74% 3.5 mph SSE5.6 kmh SSE 4.6 mph7.4 kmh 30.24 in1024.0 mb - 0.00 in0.0 mm 0.00 in0.0 mm
06:30 PM 72.8°F22.7°C 63.2°F17.3°C 72% 3.5 mph SE5.6 kmh SE 5.8 mph9.3 kmh 30.24 in1024.0 mb - 0.00 in0.0 mm 0.00 in0.0 mm
06:40 PM 72.7°F22.6°C 63.5°F17.5°C 73% 5.8 mph SSW9.3 kmh SSW 8.1 mph13.0 kmh 30.24 in1024.0 mb - 0.00 in0.0 mm 0.00 in0.0 mm
06:50 PM 72.1°F22.3°C 63.8°F17.7°C 75% 4.6 mph SE7.4 kmh SE 5.8 mph9.3 kmh 30.21 in1023.0 mb - 0.00 in0.0 mm 0.00 in0.0 mm
07:00 PM 72.0°F22.2°C 64.0°F17.8°C 76% 3.5 mph SE5.6 kmh SE 3.5 mph5.6 kmh 30.21 in1023.0 mb - 0.00 in0.0 mm 0.00 in0.0 mm
07:10 PM 71.2°F21.8°C 64.4°F18.0°C 79% 3.5 mph S5.6 kmh S 3.5 mph5.6 kmh 30.21 in1023.0 mb - 0.00 in0.0 mm 0.00 in0.0 mm
07:20 PM 70.9°F21.6°C 65.1°F18.4°C 82% 4.6 mph SSE7.4 kmh SSE 5.8 mph9.3 kmh 30.21 in1023.0 mb - 0.00 in0.0 mm 0.00 in0.0 mm
07:30 PM 70.8°F21.6°C 65.0°F18.3°C 82% 1.2 mph SE1.9 kmh SE 3.5 mph5.6 kmh 30.21 in1023.0 mb - 0.00 in0.0 mm 0.00 in0.0 mm
07:40 PM 70.8°F21.6°C 65.0°F18.3°C 82% 2.3 mph SE3.7 kmh SE 3.5 mph5.6 kmh 30.21 in1023.0 mb - 0.00 in0.0 mm 0.00 in0.0 mm
07:50 PM 70.7°F21.5°C 64.6°F18.1°C 81% 2.3 mph SSE3.7 kmh SSE 3.5 mph5.6 kmh 30.21 in1023.0 mb - 0.00 in0.0 mm 0.00 in0.0 mm
08:00 PM 70.7°F21.5°C 64.6°F18.1°C 81% Calm Calm -- 30.21 in1023.0 mb - 0.00 in0.0 mm 0.00 in0.0 mm
08:10 PM 70.3°F21.3°C 64.6°F18.1°C 82% Calm Calm -- 30.21 in1023.0 mb - 0.00 in0.0 mm 0.00 in0.0 mm
08:20 PM 70.0°F21.1°C 64.2°F17.9°C 82% Calm Calm -- 30.21 in1023.0 mb - 0.00 in0.0 mm 0.00 in0.0 mm
08:30 PM 69.8°F21.0°C 64.7°F18.2°C 84% Calm Calm -- 30.21 in1023.0 mb - 0.00 in0.0 mm 0.00 in0.0 mm
08:40 PM 69.7°F20.9°C 65.6°F18.7°C 87% Calm Calm -- 30.21 in1023.0 mb - 0.00 in0.0 mm 0.00 in0.0 mm
08:50 PM 69.3°F20.7°C 65.9°F18.8°C 89% Calm Calm -- 30.21 in1023.0 mb - 0.00 in0.0 mm 0.00 in0.0 mm
09:00 PM 68.9°F20.5°C 65.8°F18.8°C 90% Calm Calm -- 30.21 in1023.0 mb - 0.00 in0.0 mm 0.00 in0.0 mm
09:10 PM 68.6°F20.3°C 65.5°F18.6°C 90% Calm Calm -- 30.21 in1023.0 mb - 0.00 in0.0 mm 0.00 in0.0 mm
09:20 PM 68.4°F20.2°C 65.6°F18.7°C 91% Calm Calm -- 30.21 in1023.0 mb - 0.00 in0.0 mm 0.00 in0.0 mm
09:30 PM 68.2°F20.1°C 65.4°F18.6°C 91% Calm Calm -- 30.21 in1023.0 mb - 0.00 in0.0 mm 0.00 in0.0 mm
09:40 PM 67.8°F19.9°C 65.4°F18.6°C 92% Calm Calm -- 30.21 in1023.0 mb - 0.00 in0.0 mm 0.00 in0.0 mm
09:50 PM 67.6°F19.8°C 65.5°F18.6°C 93% Calm Calm -- 30.21 in1023.0 mb - 0.00 in0.0 mm 0.00 in0.0 mm
10:00 PM 67.3°F19.6°C 65.2°F18.4°C 93% Calm Calm -- 30.21 in1023.0 mb - 0.00 in0.0 mm 0.00 in0.0 mm
10:10 PM 66.9°F19.4°C 65.1°F18.4°C 94% Calm Calm 2.3 mph3.7 kmh 30.21 in1023.0 mb - 0.00 in0.0 mm 0.00 in0.0 mm
10:20 PM 66.7°F19.3°C 65.2°F18.4°C 95% 1.2 mph SE1.9 kmh SE 3.5 mph5.6 kmh 30.21 in1023.0 mb - 0.00 in0.0 mm 0.00 in0.0 mm
10:30 PM 66.0°F18.9°C 64.5°F18.1°C 95% Calm Calm -- 30.21 in1023.0 mb - 0.00 in0.0 mm 0.00 in0.0 mm
10:40 PM 65.7°F18.7°C 64.5°F18.1°C 96% Calm Calm -- 30.21 in1023.0 mb - 0.00 in0.0 mm 0.00 in0.0 mm
10:50 PM 65.3°F18.5°C 64.1°F17.8°C 96% Calm Calm -- 30.21 in1023.0 mb - 0.00 in0.0 mm 0.00 in0.0 mm
11:00 PM 64.8°F18.2°C 63.7°F17.6°C 96% Calm Calm -- 30.21 in1023.0 mb - 0.00 in0.0 mm 0.00 in0.0 mm
11:10 PM 64.6°F18.1°C 63.4°F17.4°C 96% Calm Calm -- 30.21 in1023.0 mb - 0.00 in0.0 mm 0.00 in0.0 mm
11:20 PM 64.2°F17.9°C 63.4°F17.4°C 97% Calm Calm -- 30.21 in1023.0 mb - 0.00 in0.0 mm 0.00 in0.0 mm
11:30 PM 64.0°F17.8°C 63.2°F17.3°C 97% Calm Calm -- 30.21 in1023.0 mb - 0.00 in0.0 mm 0.00 in0.0 mm
11:40 PM 63.9°F17.7°C 63.0°F17.2°C 97% Calm Calm -- 30.21 in1023.0 mb - 0.00 in0.0 mm 0.00 in0.0 mm
11:50 PM 63.7°F17.6°C 62.8°F17.1°C 97% Calm Calm -- 30.21 in1023.0 mb - 0.00 in0.0 mm 0.00 in0.0 mm